Terminal Aerodrome Forecast
Issued by NWS Wilmington, OH

Current Version | Previous Version | Graphics & Text | Print | Product List | Glossary On
Versions: 1 2 3 4 5 6 7 8 9 10 11 12 13 14 15 16 17 18 19
000
FTUS41 KILN 261426 AAA
TAFCMH
TAF AMD
KCMH 261426Z 2614/2712 33006KT P6SM OVC045
      TEMPO 2614/2617 BKN025
     FM270000 01003KT P6SM BKN045=

USA.gov is the U.S. government's official web portal to all federal, state and local government web resources and services.